Time;durP1;ratioP1;P1;durP2;ratioP2;P2;SDS_P1;SDS_P2;PMS_P1;PMS_P2;Temp;Humidity;BMP_temperature;BMP_pressure;BME280_temperature;BME280_humidity;BME280_pressure;Samples;Min_cycle;Max_cycle;Signal;HPM_P1;HPM_P2
2021/10/02 00:46:38;;;;;;;;;;;22.60;57.90;;;;;;5089073;28;20373;-58
2021/10/02 00:49:05;;;;;;;;;;;22.60;57.90;;;;;;5076868;28;19924;-58
2021/10/02 00:51:32;;;;;;;;;;;22.60;57.90;;;;;;5058160;28;20402;-58
2021/10/02 00:53:59;;;;;;;;;;;22.60;57.90;;;;;;5057870;28;19928;-58
2021/10/02 00:56:26;;;;;;;;;;;22.60;57.90;;;;;;5075080;28;20322;-56
2021/10/02 00:58:53;;;;;;;;;;;22.60;57.90;;;;;;5075526;28;19970;-56
2021/10/02 01:01:23;;;;;;;;;;;22.60;57.90;;;;;;5064723;28;19928;-57
2021/10/02 01:03:56;;;;;;;;;;;22.60;57.90;;;;;;5070216;28;19963;-59
2021/10/02 01:06:23;;;;;;;;;;;22.60;57.90;;;;;;5070244;28;19924;-58
2021/10/02 01:08:56;;;;;;;;;;;22.60;57.90;;;;;;5075147;28;19929;-59
2021/10/02 01:11:30;;;;;;;;;;;22.60;57.90;;;;;;5075183;28;19925;-57
2021/10/02 01:14:02;;;;;;;;;;;22.60;57.90;;;;;;5076496;28;19929;-58
2021/10/02 01:16:31;;;;;;;;;;;22.60;57.90;;;;;;5076214;28;20030;-58
2021/10/02 01:19:01;;;;;;;;;;;22.60;57.90;;;;;;5060385;28;19974;-58
2021/10/02 01:21:48;;;;;;;;;;;22.60;57.90;;;;;;5059301;28;19925;-55
2021/10/02 01:24:33;;;;;;;;;;;22.50;57.80;;;;;;5075725;28;19946;-57
2021/10/02 01:27:22;;;;;;;;;;;22.60;57.90;;;;;;5062741;28;20510;-58
2021/10/02 01:29:50;;;;;;;;;;;22.60;57.90;;;;;;5105959;27;19924;-57
2021/10/02 01:32:32;;;;;;;;;;;22.60;57.80;;;;;;5059506;28;19996;-59
2021/10/02 01:48:40;;;;;;;;;;;22.60;57.80;;;;;;5075573;28;20293;-58
2021/10/02 01:51:10;;;;;;;;;;;22.60;57.80;;;;;;5075751;28;19932;-59
2021/10/02 01:53:38;;;;;;;;;;;22.50;57.80;;;;;;5056043;28;19925;-58
2021/10/02 01:56:07;;;;;;;;;;;22.50;57.80;;;;;;5074692;28;19931;-55
2021/10/02 01:58:35;;;;;;;;;;;22.50;57.80;;;;;;5057822;28;19931;-58
2021/10/02 02:01:04;;;;;;;;;;;22.60;57.80;;;;;;5088098;28;19973;-57
2021/10/02 02:03:33;;;;;;;;;;;22.60;57.80;;;;;;5075128;28;19977;-59
2021/10/02 02:06:01;;;;;;;;;;;22.60;57.80;;;;;;5085064;28;20384;-59
2021/10/02 02:08:28;;;;;;;;;;;22.60;57.80;;;;;;5080511;28;20357;-58
2021/10/02 02:11:16;;;;;;;;;;;22.60;57.80;;;;;;5065259;28;19925;-59
2021/10/02 02:13:44;;;;;;;;;;;22.60;57.80;;;;;;5075598;28;19924;-58
2021/10/02 02:16:11;;;;;;;;;;;22.60;57.80;;;;;;5090508;28;20372;-59
2021/10/02 02:18:38;;;;;;;;;;;22.60;57.80;;;;;;5078825;28;19970;-58
2021/10/02 02:21:11;;;;;;;;;;;22.60;57.80;;;;;;5072835;28;19924;-57
2021/10/02 02:23:38;;;;;;;;;;;22.60;57.80;;;;;;5074995;28;20007;-57
2021/10/02 02:26:07;;;;;;;;;;;22.60;57.80;;;;;;5075320;28;19928;-58
2021/10/02 02:28:35;;;;;;;;;;;22.60;57.80;;;;;;5072764;28;19992;-58
2021/10/02 02:31:03;;;;;;;;;;;22.60;57.80;;;;;;5073029;28;19925;-59
2021/10/02 02:33:31;;;;;;;;;;;22.60;57.70;;;;;;5073458;28;19964;-58
2021/10/02 02:35:58;;;;;;;;;;;22.60;57.80;;;;;;5060152;28;19928;-58
2021/10/02 02:38:25;;;;;;;;;;;22.60;57.80;;;;;;5067819;28;19932;-57
2021/10/02 02:40:52;;;;;;;;;;;22.60;57.80;;;;;;5073740;28;19924;-59
2021/10/02 02:43:19;;;;;;;;;;;22.60;57.80;;;;;;5073188;28;19929;-59
2021/10/02 02:45:50;;;;;;;;;;;22.60;57.70;;;;;;5072037;28;19931;-57
2021/10/02 02:48:27;;;;;;;;;;;22.60;57.70;;;;;;5073117;28;19931;-58
2021/10/02 02:50:57;;;;;;;;;;;22.60;57.70;;;;;;5071672;28;20395;-59
2021/10/02 02:53:42;;;;;;;;;;;22.60;57.70;;;;;;5056399;28;20257;-58
2021/10/02 02:56:15;;;;;;;;;;;22.60;57.80;;;;;;5072616;28;19931;-59
2021/10/02 02:58:43;;;;;;;;;;;22.60;57.70;;;;;;5073042;28;19925;-56
2021/10/02 03:01:11;;;;;;;;;;;22.60;57.70;;;;;;5074406;28;19946;-57
2021/10/02 03:03:38;;;;;;;;;;;22.60;57.70;;;;;;5090263;28;19924;-58
2021/10/02 03:06:08;;;;;;;;;;;22.60;57.70;;;;;;5074020;28;20019;-58
2021/10/02 03:08:38;;;;;;;;;;;22.60;57.70;;;;;;5072277;28;20204;-59
2021/10/02 03:11:06;;;;;;;;;;;22.60;57.70;;;;;;5060420;28;20377;-57
2021/10/02 03:13:38;;;;;;;;;;;22.60;57.70;;;;;;5058920;28;20057;-58
2021/10/02 03:16:10;;;;;;;;;;;22.60;57.70;;;;;;5057032;28;20400;-58
2021/10/02 03:18:42;;;;;;;;;;;22.50;57.60;;;;;;5057459;28;20015;-59
2021/10/02 03:21:10;;;;;;;;;;;22.60;57.70;;;;;;5066519;28;19983;-58
2021/10/02 03:23:38;;;;;;;;;;;22.60;57.70;;;;;;5073790;28;20445;-59
2021/10/02 03:26:05;;;;;;;;;;;22.60;57.70;;;;;;5072486;28;19974;-58
2021/10/02 03:28:33;;;;;;;;;;;22.60;57.70;;;;;;5072617;28;19947;-58
2021/10/02 03:31:00;;;;;;;;;;;22.60;57.70;;;;;;5072207;28;20460;-58
2021/10/02 03:33:28;;;;;;;;;;;22.60;57.70;;;;;;5054647;28;19998;-57
2021/10/02 03:35:55;;;;;;;;;;;22.60;57.70;;;;;;5072607;28;19925;-59
2021/10/02 03:38:23;;;;;;;;;;;22.60;57.80;;;;;;5073273;28;19929;-58
2021/10/02 03:40:50;;;;;;;;;;;22.60;57.70;;;;;;5087393;28;19929;-59
2021/10/02 03:43:17;;;;;;;;;;;22.60;57.70;;;;;;5076035;28;19924;-58
2021/10/02 03:45:44;;;;;;;;;;;22.60;57.70;;;;;;5073688;28;19925;-58
2021/10/02 03:48:11;;;;;;;;;;;22.60;57.70;;;;;;5064849;28;19932;-58
2021/10/02 03:50:38;;;;;;;;;;;22.60;57.70;;;;;;5063711;28;19924;-59
2021/10/02 03:53:05;;;;;;;;;;;22.60;57.70;;;;;;5068540;28;19979;-58
2021/10/02 03:55:32;;;;;;;;;;;22.60;57.70;;;;;;5059085;28;19932;-58
2021/10/02 03:57:59;;;;;;;;;;;22.60;57.70;;;;;;5104528;28;19932;-58
2021/10/02 04:00:26;;;;;;;;;;;22.60;57.70;;;;;;5072416;28;19970;-58
2021/10/02 04:02:54;;;;;;;;;;;22.60;57.70;;;;;;5072163;28;19931;-56
2021/10/02 04:05:21;;;;;;;;;;;22.60;57.70;;;;;;5071866;28;19981;-58
2021/10/02 04:07:48;;;;;;;;;;;22.60;57.70;;;;;;5072047;28;20292;-59
2021/10/02 04:10:15;;;;;;;;;;;22.50;57.60;;;;;;5070986;28;20292;-58
2021/10/02 04:12:42;;;;;;;;;;;22.60;57.60;;;;;;5082378;28;19958;-58
2021/10/02 04:15:09;;;;;;;;;;;22.50;57.60;;;;;;5073910;28;20388;-59
2021/10/02 04:17:36;;;;;;;;;;;22.60;57.70;;;;;;5062116;28;19925;-59
2021/10/02 04:20:04;;;;;;;;;;;22.60;57.70;;;;;;5064620;28;20367;-58
2021/10/02 04:22:32;;;;;;;;;;;22.60;57.70;;;;;;5064381;28;19975;-56
2021/10/02 04:25:01;;;;;;;;;;;22.60;57.70;;;;;;5078419;28;19932;-59
2021/10/02 04:27:27;;;;;;;;;;;22.50;57.60;;;;;;5061977;28;20641;-56
2021/10/02 04:29:54;;;;;;;;;;;22.50;57.60;;;;;;5078945;28;19924;-59
2021/10/02 04:32:21;;;;;;;;;;;22.50;57.60;;;;;;5078440;28;19932;-59
2021/10/02 04:34:48;;;;;;;;;;;22.50;57.60;;;;;;5091826;28;19924;-59
2021/10/02 04:37:15;;;;;;;;;;;22.50;57.60;;;;;;5093656;28;20384;-57
2021/10/02 04:39:42;;;;;;;;;;;22.50;57.60;;;;;;5093757;28;19928;-57
2021/10/02 04:42:09;;;;;;;;;;;22.50;57.60;;;;;;5086647;28;19972;-57
2021/10/02 04:44:37;;;;;;;;;;;22.50;57.60;;;;;;5078630;28;19970;-59
2021/10/02 04:47:03;;;;;;;;;;;22.50;57.60;;;;;;5078001;28;19924;-57
2021/10/02 04:49:30;;;;;;;;;;;22.50;57.60;;;;;;5077024;28;19928;-58
2021/10/02 04:51:57;;;;;;;;;;;22.50;57.60;;;;;;5065865;28;19928;-58
2021/10/02 04:54:24;;;;;;;;;;;22.50;57.60;;;;;;5061890;28;19924;-59
2021/10/02 04:56:51;;;;;;;;;;;22.50;57.60;;;;;;5060876;28;19925;-56
2021/10/02 04:59:18;;;;;;;;;;;22.50;57.60;;;;;;5079152;28;20424;-59
2021/10/02 05:01:45;;;;;;;;;;;22.50;57.60;;;;;;5076965;28;20289;-58
2021/10/02 05:04:13;;;;;;;;;;;22.50;57.60;;;;;;5076909;28;19925;-58
2021/10/02 05:06:40;;;;;;;;;;;22.50;57.60;;;;;;5112054;27;20318;-58
2021/10/02 05:09:07;;;;;;;;;;;22.50;57.60;;;;;;5079203;28;19932;-58
2021/10/02 05:11:34;;;;;;;;;;;22.50;57.60;;;;;;5079517;28;19991;-59
2021/10/02 05:14:01;;;;;;;;;;;22.50;57.60;;;;;;5077502;28;19939;-58
2021/10/02 05:16:28;;;;;;;;;;;22.50;57.60;;;;;;5078544;28;19925;-58
2021/10/02 05:18:55;;;;;;;;;;;22.50;57.50;;;;;;5077930;28;19924;-59
2021/10/02 05:21:22;;;;;;;;;;;22.50;57.50;;;;;;5095291;28;19924;-58
2021/10/02 05:23:49;;;;;;;;;;;22.50;57.50;;;;;;5076024;28;19978;-58
2021/10/02 05:26:16;;;;;;;;;;;22.60;57.60;;;;;;5079129;28;19924;-59
2021/10/02 05:28:43;;;;;;;;;;;22.60;57.60;;;;;;5074891;28;20019;-58
2021/10/02 05:31:10;;;;;;;;;;;22.60;57.60;;;;;;5073414;28;20027;-58
2021/10/02 05:33:37;;;;;;;;;;;22.50;57.50;;;;;;5073998;28;20003;-58
2021/10/02 05:36:04;;;;;;;;;;;22.60;57.60;;;;;;5075474;28;19951;-58
2021/10/02 05:38:31;;;;;;;;;;;22.60;57.50;;;;;;5073255;28;19978;-58
2021/10/02 05:40:58;;;;;;;;;;;22.60;57.50;;;;;;5073346;28;19932;-58
2021/10/02 05:43:25;;;;;;;;;;;22.60;57.50;;;;;;5077218;28;19925;-58
2021/10/02 05:45:52;;;;;;;;;;;22.60;57.50;;;;;;5074324;28;20432;-57
2021/10/02 05:48:19;;;;;;;;;;;22.60;58.00;;;;;;5074798;28;19948;-57
2021/10/02 05:50:46;;;;;;;;;;;22.60;57.40;;;;;;5075479;28;19968;-58
2021/10/02 05:53:13;;;;;;;;;;;22.60;57.40;;;;;;5074552;28;19924;-59
2021/10/02 05:55:40;;;;;;;;;;;22.60;57.40;;;;;;5072734;28;20445;-58
2021/10/02 05:58:07;;;;;;;;;;;22.60;57.40;;;;;;5074395;28;19928;-58
2021/10/02 06:00:34;;;;;;;;;;;22.60;57.40;;;;;;5073935;28;19925;-58
2021/10/02 06:03:02;;;;;;;;;;;22.60;57.40;;;;;;5068974;28;19924;-59
2021/10/02 06:05:29;;;;;;;;;;;22.60;57.30;;;;;;5062524;28;19931;-59
2021/10/02 06:07:56;;;;;;;;;;;22.60;57.30;;;;;;5074932;28;19924;-58
2021/10/02 06:10:24;;;;;;;;;;;22.70;57.40;;;;;;5073736;28;20015;-58
2021/10/02 06:12:53;;;;;;;;;;;22.70;57.40;;;;;;5073946;28;20424;-57
2021/10/02 06:15:21;;;;;;;;;;;22.70;57.30;;;;;;5057539;28;19925;-58
2021/10/02 06:17:48;;;;;;;;;;;22.70;57.30;;;;;;5056472;28;19932;-58
2021/10/02 06:20:15;;;;;;;;;;;22.70;57.20;;;;;;5073066;28;20007;-59
2021/10/02 06:22:42;;;;;;;;;;;22.70;57.20;;;;;;5086287;28;19924;-58
2021/10/02 06:25:10;;;;;;;;;;;22.70;57.20;;;;;;5111006;27;19928;-59
2021/10/02 06:27:38;;;;;;;;;;;22.70;57.20;;;;;;5064870;28;19925;-58
2021/10/02 06:30:05;;;;;;;;;;;22.70;57.20;;;;;;5058535;28;19956;-59
2021/10/02 06:32:32;;;;;;;;;;;22.70;57.10;;;;;;5062700;28;19974;-58
2021/10/02 06:34:59;;;;;;;;;;;22.70;57.10;;;;;;5074392;28;19925;-58
2021/10/02 06:37:26;;;;;;;;;;;22.70;57.00;;;;;;5073654;28;19990;-58
2021/10/02 06:39:53;;;;;;;;;;;22.70;57.00;;;;;;5073257;28;20042;-58
2021/10/02 06:42:20;;;;;;;;;;;22.80;57.00;;;;;;5073324;28;20018;-57
2021/10/02 06:44:47;;;;;;;;;;;22.80;57.00;;;;;;5073462;28;20478;-56
2021/10/02 06:47:14;;;;;;;;;;;22.80;56.90;;;;;;5073307;28;20434;-57
2021/10/02 06:49:41;;;;;;;;;;;22.80;56.90;;;;;;5072151;28;19991;-57
2021/10/02 06:52:09;;;;;;;;;;;22.80;56.90;;;;;;5064087;28;20293;-58
2021/10/02 06:54:36;;;;;;;;;;;22.80;56.80;;;;;;5065989;28;19931;-57
2021/10/02 06:57:04;;;;;;;;;;;22.80;56.80;;;;;;5072382;28;19925;-59
2021/10/02 06:59:31;;;;;;;;;;;22.80;56.80;;;;;;5069962;28;19982;-58
2021/10/02 07:01:58;;;;;;;;;;;22.80;56.80;;;;;;5059847;28;20392;-59
2021/10/02 07:04:25;;;;;;;;;;;22.80;56.70;;;;;;5072502;28;19924;-57
2021/10/02 07:06:58;;;;;;;;;;;22.80;56.70;;;;;;5074490;28;19931;-57
2021/10/02 07:09:25;;;;;;;;;;;22.80;56.70;;;;;;5054644;28;19932;-58
2021/10/02 07:11:52;;;;;;;;;;;22.90;56.80;;;;;;5073184;28;19924;-59
2021/10/02 07:14:19;;;;;;;;;;;22.90;56.70;;;;;;5073063;28;20356;-58
2021/10/02 07:16:46;;;;;;;;;;;22.80;56.70;;;;;;5072903;28;19986;-58
2021/10/02 07:19:14;;;;;;;;;;;22.90;56.80;;;;;;5058897;28;19964;-59
2021/10/02 07:21:41;;;;;;;;;;;22.90;56.70;;;;;;5057314;28;19982;-59
2021/10/02 07:24:09;;;;;;;;;;;22.90;56.70;;;;;;5064249;28;19925;-58
2021/10/02 07:26:36;;;;;;;;;;;22.90;56.70;;;;;;5070842;28;20407;-58
2021/10/02 07:29:03;;;;;;;;;;;22.80;56.60;;;;;;5072580;28;19924;-57
2021/10/02 07:31:30;;;;;;;;;;;22.90;56.70;;;;;;5071696;28;19924;-58
2021/10/02 07:33:57;;;;;;;;;;;22.90;56.60;;;;;;5056913;28;19967;-59
2021/10/02 07:36:24;;;;;;;;;;;22.90;56.60;;;;;;5073687;28;19970;-58
2021/10/02 07:38:51;;;;;;;;;;;22.90;56.50;;;;;;5055322;28;19933;-58
2021/10/02 07:41:18;;;;;;;;;;;23.00;56.60;;;;;;5070419;28;19928;-57
2021/10/02 07:43:47;;;;;;;;;;;23.00;56.50;;;;;;5071319;28;19955;-59
2021/10/02 07:46:15;;;;;;;;;;;22.90;56.50;;;;;;5072106;28;19971;-58
2021/10/02 07:48:42;;;;;;;;;;;23.00;56.50;;;;;;5082098;28;19928;-59
2021/10/02 07:51:11;;;;;;;;;;;23.00;56.50;;;;;;5079286;28;19954;-59
2021/10/02 07:53:38;;;;;;;;;;;23.00;56.50;;;;;;5074851;28;20432;-57
2021/10/02 07:56:06;;;;;;;;;;;23.00;56.50;;;;;;5085530;28;20004;-60
2021/10/02 07:58:33;;;;;;;;;;;23.00;56.50;;;;;;5074958;28;20001;-59
2021/10/02 08:01:00;;;;;;;;;;;23.00;56.50;;;;;;5083347;28;19975;-59
2021/10/02 08:03:28;;;;;;;;;;;23.00;56.50;;;;;;5087377;28;19928;-57
2021/10/02 08:05:55;;;;;;;;;;;23.00;56.40;;;;;;5077046;28;19924;-58
2021/10/02 08:08:22;;;;;;;;;;;23.00;56.50;;;;;;5086724;28;19924;-58
2021/10/02 08:10:50;;;;;;;;;;;23.00;56.40;;;;;;5119778;27;19997;-58
2021/10/02 08:13:18;;;;;;;;;;;23.00;56.50;;;;;;5077656;28;19936;-59
2021/10/02 08:15:46;;;;;;;;;;;23.00;56.40;;;;;;5076763;28;19935;-59
2021/10/02 08:18:17;;;;;;;;;;;23.00;56.50;;;;;;5085930;28;20467;-57
2021/10/02 08:20:45;;;;;;;;;;;23.00;56.40;;;;;;5083454;28;19928;-58
2021/10/02 08:23:17;;;;;;;;;;;23.00;56.40;;;;;;5078261;28;19925;-59
2021/10/02 08:25:48;;;;;;;;;;;23.00;56.40;;;;;;5086099;28;20020;-58
2021/10/02 08:28:16;;;;;;;;;;;23.00;56.30;;;;;;5086282;28;19929;-58
2021/10/02 08:30:44;;;;;;;;;;;23.00;56.30;;;;;;5076547;28;19932;-59
2021/10/02 08:33:12;;;;;;;;;;;23.00;56.30;;;;;;5084115;28;19935;-58
2021/10/02 08:35:40;;;;;;;;;;;23.10;56.40;;;;;;5073124;28;20345;-58
2021/10/02 08:38:07;;;;;;;;;;;23.10;56.40;;;;;;5078460;28;19962;-59
2021/10/02 08:40:34;;;;;;;;;;;23.00;56.30;;;;;;5083748;28;19924;-58
2021/10/02 08:43:02;;;;;;;;;;;23.10;56.40;;;;;;5074897;28;19928;-59
2021/10/02 08:45:30;;;;;;;;;;;23.10;56.40;;;;;;5077112;28;19925;-59
2021/10/02 08:47:58;;;;;;;;;;;23.10;56.40;;;;;;5079907;28;20457;-58
2021/10/02 08:50:26;;;;;;;;;;;23.00;56.30;;;;;;5081712;28;20034;-59
2021/10/02 08:52:54;;;;;;;;;;;23.00;56.30;;;;;;5074517;28;19924;-59
2021/10/02 08:55:21;;;;;;;;;;;23.00;56.30;;;;;;5072277;28;19933;-58
2021/10/02 08:57:49;;;;;;;;;;;23.00;56.30;;;;;;5075364;28;20023;-58
2021/10/02 09:00:19;;;;;;;;;;;23.00;56.30;;;;;;5081915;28;20350;-59
2021/10/02 09:02:46;;;;;;;;;;;23.00;56.30;;;;;;5079744;28;20007;-58
2021/10/02 09:05:14;;;;;;;;;;;23.00;56.40;;;;;;5059450;28;20324;-59
2021/10/02 09:07:43;;;;;;;;;;;23.00;56.40;;;;;;5079152;28;19924;-57
2021/10/02 09:10:11;;;;;;;;;;;23.00;56.40;;;;;;5081476;28;20636;-57
2021/10/02 09:12:39;;;;;;;;;;;23.00;56.40;;;;;;5076210;28;19936;-59
2021/10/02 09:15:07;;;;;;;;;;;23.00;56.40;;;;;;5076487;28;19924;-59
2021/10/02 09:17:34;;;;;;;;;;;23.00;56.50;;;;;;5083199;28;20018;-58
2021/10/02 09:20:03;;;;;;;;;;;23.00;57.00;;;;;;5070436;28;19977;-57
2021/10/02 09:22:30;;;;;;;;;;;23.00;56.40;;;;;;5060688;28;19925;-56
2021/10/02 09:24:59;;;;;;;;;;;23.00;56.50;;;;;;5059309;28;19978;-58
2021/10/02 09:27:27;;;;;;;;;;;23.00;56.40;;;;;;5075753;28;20400;-58
2021/10/02 09:29:58;;;;;;;;;;;23.00;56.50;;;;;;5058438;28;19971;-58
2021/10/02 09:32:30;;;;;;;;;;;23.00;56.50;;;;;;5058814;28;20293;-57
2021/10/02 09:34:59;;;;;;;;;;;23.00;56.50;;;;;;5072836;28;19974;-59
2021/10/02 09:37:27;;;;;;;;;;;23.10;56.50;;;;;;5075721;28;20019;-58
2021/10/02 09:40:03;;;;;;;;;;;23.00;56.40;;;;;;5075573;28;19931;-58
2021/10/02 09:43:03;;;;;;;;;;;23.00;56.40;;;;;;5074701;28;19977;-59
2021/10/02 09:45:38;;;;;;;;;;;23.10;56.50;;;;;;5051957;28;19924;-59
2021/10/02 09:48:10;;;;;;;;;;;23.10;56.50;;;;;;5052139;28;19929;-57
2021/10/02 09:50:39;;;;;;;;;;;23.10;56.50;;;;;;5064673;28;20347;-58
2021/10/02 09:53:09;;;;;;;;;;;23.10;56.50;;;;;;5056310;28;19924;-57
2021/10/02 09:55:56;;;;;;;;;;;23.10;56.50;;;;;;5060948;28;20027;-59
2021/10/02 09:58:28;;;;;;;;;;;23.10;56.50;;;;;;5062758;28;19931;-58
2021/10/02 10:00:56;;;;;;;;;;;23.10;56.50;;;;;;5057835;28;20416;-60
2021/10/02 10:03:24;;;;;;;;;;;23.10;56.50;;;;;;5051815;28;19925;-58
2021/10/02 10:05:52;;;;;;;;;;;23.10;56.60;;;;;;5051444;28;19998;-58
2021/10/02 10:08:22;;;;;;;;;;;23.10;56.50;;;;;;5048326;28;19932;-58
2021/10/02 10:10:49;;;;;;;;;;;23.10;56.50;;;;;;5038501;28;19968;-58
2021/10/02 10:13:19;;;;;;;;;;;23.20;56.60;;;;;;5035401;28;20490;-58
2021/10/02 10:15:47;;;;;;;;;;;23.10;56.50;;;;;;5050847;28;20408;-60
2021/10/02 10:18:15;;;;;;;;;;;23.20;56.60;;;;;;5050541;28;19925;-59
2021/10/02 10:20:53;;;;;;;;;;;23.20;56.50;;;;;;5052076;28;20013;-58
2021/10/02 10:23:36;;;;;;;;;;;23.20;56.50;;;;;;5058132;28;19987;-58
2021/10/02 10:26:03;;;;;;;;;;;23.20;56.40;;;;;;5056775;28;19975;-57
2021/10/02 10:28:31;;;;;;;;;;;23.20;56.40;;;;;;5073259;28;20003;-58
2021/10/02 10:31:09;;;;;;;;;;;23.20;56.40;;;;;;5086477;28;19928;-58
2021/10/02 10:33:37;;;;;;;;;;;23.30;56.50;;;;;;5068150;28;19924;-58
2021/10/02 10:36:04;;;;;;;;;;;23.30;56.50;;;;;;5066514;28;19972;-57
2021/10/02 10:38:35;;;;;;;;;;;23.30;56.40;;;;;;5066223;28;20004;-58
2021/10/02 10:41:04;;;;;;;;;;;23.30;56.40;;;;;;5064325;28;20323;-58
2021/10/02 10:43:31;;;;;;;;;;;23.30;56.40;;;;;;5073576;28;19924;-59
2021/10/02 10:45:59;;;;;;;;;;;23.30;56.30;;;;;;5105977;27;20589;-58
2021/10/02 10:48:26;;;;;;;;;;;23.40;56.40;;;;;;5074347;28;20007;-57
2021/10/02 10:50:59;;;;;;;;;;;23.40;56.40;;;;;;5091486;28;19928;-58
2021/10/02 10:53:32;;;;;;;;;;;23.40;56.40;;;;;;5104148;28;20087;-58
2021/10/02 10:55:59;;;;;;;;;;;23.40;56.30;;;;;;5072997;28;20035;-57
2021/10/02 10:58:28;;;;;;;;;;;23.40;56.30;;;;;;5071691;28;20004;-57
2021/10/02 11:00:55;;;;;;;;;;;23.40;56.40;;;;;;5059381;28;19928;-58
2021/10/02 11:03:36;;;;;;;;;;;23.40;56.40;;;;;;5057694;28;19924;-57
2021/10/02 11:06:05;;;;;;;;;;;23.40;56.40;;;;;;5068169;28;20000;-59
2021/10/02 11:08:50;;;;;;;;;;;23.30;56.40;;;;;;5071468;28;20428;-58
2021/10/02 11:11:37;;;;;;;;;;;23.30;56.50;;;;;;5071676;28;20305;-59
2021/10/02 11:14:04;;;;;;;;;;;23.30;56.40;;;;;;5063076;28;19925;-59
2021/10/02 11:16:35;;;;;;;;;;;23.30;56.50;;;;;;5067229;28;19959;-59
2021/10/02 11:19:22;;;;;;;;;;;23.30;56.50;;;;;;5072104;28;19924;-60
2021/10/02 11:21:59;;;;;;;;;;;23.30;56.50;;;;;;5063154;28;19971;-57
2021/10/02 11:24:36;;;;;;;;;;;23.30;56.60;;;;;;5065471;28;19971;-57
2021/10/02 11:27:04;;;;;;;;;;;23.30;56.70;;;;;;5071599;28;19925;-58
2021/10/02 11:29:35;;;;;;;;;;;23.30;56.70;;;;;;5075008;28;19968;-61
2021/10/02 11:32:17;;;;;;;;;;;23.30;56.70;;;;;;5074909;28;19978;-59
2021/10/02 11:35:02;;;;;;;;;;;23.30;56.80;;;;;;5071830;28;19928;-58
2021/10/02 11:37:41;;;;;;;;;;;23.20;56.70;;;;;;5105187;27;19970;-58
2021/10/02 11:40:27;;;;;;;;;;;23.30;56.80;;;;;;5072235;28;20369;-58
2021/10/02 11:43:12;;;;;;;;;;;23.20;56.70;;;;;;5072055;28;19924;-58
2021/10/02 11:45:40;;;;;;;;;;;23.20;56.80;;;;;;5070815;28;19928;-59
2021/10/02 11:48:14;;;;;;;;;;;23.30;56.80;;;;;;5070285;28;20296;-58
2021/10/02 11:50:42;;;;;;;;;;;23.20;56.80;;;;;;5060090;28;19931;-58
2021/10/02 11:53:12;;;;;;;;;;;23.20;56.80;;;;;;5073640;28;19924;-58
2021/10/02 11:55:42;;;;;;;;;;;23.20;56.90;;;;;;5072199;28;19951;-57
2021/10/02 11:58:09;;;;;;;;;;;23.30;56.90;;;;;;5071468;28;19925;-57
2021/10/02 12:00:39;;;;;;;;;;;23.20;56.80;;;;;;5072373;28;19924;-57
2021/10/02 12:03:07;;;;;;;;;;;23.30;56.90;;;;;;5073004;28;20017;-57
2021/10/02 12:05:34;;;;;;;;;;;23.20;56.80;;;;;;5061147;28;19925;-57
2021/10/02 12:08:01;;;;;;;;;;;23.20;56.80;;;;;;5069179;28;19924;-56
2021/10/02 12:10:28;;;;;;;;;;;23.20;56.80;;;;;;5081265;28;20376;-57
2021/10/02 12:13:15;;;;;;;;;;;23.30;56.90;;;;;;5082584;28;19928;-60
2021/10/02 12:15:42;;;;;;;;;;;23.30;56.90;;;;;;5064508;28;19928;-57
2021/10/02 12:18:09;;;;;;;;;;;23.20;56.90;;;;;;5056614;28;20274;-57
2021/10/02 12:20:37;;;;;;;;;;;23.20;56.90;;;;;;5057751;28;19924;-60
2021/10/02 12:23:05;;;;;;;;;;;23.20;56.90;;;;;;5071016;28;19924;-59
2021/10/02 12:25:32;;;;;;;;;;;23.20;56.90;;;;;;5073158;28;19924;-58
2021/10/02 12:28:00;;;;;;;;;;;23.20;56.90;;;;;;5090131;28;19928;-58
2021/10/02 12:30:27;;;;;;;;;;;23.20;56.90;;;;;;5054864;28;19925;-57
2021/10/02 12:32:58;;;;;;;;;;;23.20;56.90;;;;;;5072873;28;20062;-57
2021/10/02 12:35:25;;;;;;;;;;;23.20;56.90;;;;;;5071486;28;20429;-57
2021/10/02 12:37:56;;;;;;;;;;;23.20;56.90;;;;;;5084923;28;20376;-58
2021/10/02 12:40:25;;;;;;;;;;;23.20;56.90;;;;;;5092782;28;19973;-58
2021/10/02 12:42:53;;;;;;;;;;;23.20;56.90;;;;;;5076115;28;19975;-58
2021/10/02 12:45:23;;;;;;;;;;;23.20;56.90;;;;;;5060525;28;20003;-58
2021/10/02 12:47:54;;;;;;;;;;;23.20;56.90;;;;;;5071896;28;19943;-57
2021/10/02 12:50:48;;;;;;;;;;;23.20;56.90;;;;;;5086237;28;19924;-58
2021/10/02 12:53:20;;;;;;;;;;;23.20;57.00;;;;;;5060203;28;19925;-58
2021/10/02 12:55:47;;;;;;;;;;;23.20;57.00;;;;;;5059745;28;19925;-59
2021/10/02 12:58:16;;;;;;;;;;;23.20;56.90;;;;;;5061665;28;19990;-59
2021/10/02 13:00:43;;;;;;;;;;;23.20;56.90;;;;;;5060993;28;19982;-58
2021/10/02 13:03:14;;;;;;;;;;;23.20;57.00;;;;;;5076398;28;20411;-58
2021/10/02 13:05:41;;;;;;;;;;;23.20;56.90;;;;;;5075543;28;20330;-59
2021/10/02 13:08:13;;;;;;;;;;;23.20;57.00;;;;;;5075275;28;19932;-59
2021/10/02 13:10:40;;;;;;;;;;;23.20;57.00;;;;;;5090030;28;19936;-56
2021/10/02 13:13:09;;;;;;;;;;;23.20;57.00;;;;;;5066140;28;19929;-58
2021/10/02 13:15:40;;;;;;;;;;;23.20;57.00;;;;;;5081744;28;19966;-58
2021/10/02 13:18:07;;;;;;;;;;;23.20;57.00;;;;;;5078807;28;19954;-58
2021/10/02 13:20:41;;;;;;;;;;;23.20;56.90;;;;;;5082359;28;19970;-58
2021/10/02 13:23:07;;;;;;;;;;;23.20;57.00;;;;;;5079590;28;19928;-59
2021/10/02 13:25:39;;;;;;;;;;;23.20;57.00;;;;;;5066315;28;19925;-59
2021/10/02 13:28:06;;;;;;;;;;;23.20;57.00;;;;;;5077125;28;19925;-60
2021/10/02 13:30:34;;;;;;;;;;;23.20;57.00;;;;;;5089435;28;20388;-59
2021/10/02 13:33:03;;;;;;;;;;;23.20;57.00;;;;;;5075833;28;19925;-59
2021/10/02 13:35:36;;;;;;;;;;;23.20;57.00;;;;;;5075758;28;19924;-58
2021/10/02 13:38:04;;;;;;;;;;;23.20;57.10;;;;;;5075244;28;19978;-59
2021/10/02 13:40:33;;;;;;;;;;;23.20;57.10;;;;;;5075308;28;20007;-59
2021/10/02 13:43:01;;;;;;;;;;;23.20;57.10;;;;;;5075465;28;19924;-58
2021/10/02 13:45:33;;;;;;;;;;;23.20;57.10;;;;;;5075467;28;19970;-60
2021/10/02 13:48:03;;;;;;;;;;;23.20;57.10;;;;;;5073132;28;19929;-58
2021/10/02 13:50:30;;;;;;;;;;;23.20;57.10;;;;;;5073429;28;19925;-58
2021/10/02 13:52:58;;;;;;;;;;;23.20;57.10;;;;;;5074415;28;20381;-58
2021/10/02 13:55:25;;;;;;;;;;;23.20;57.00;;;;;;5072913;28;20011;-55
2021/10/02 13:57:52;;;;;;;;;;;23.20;57.00;;;;;;5075087;28;19975;-59
2021/10/02 14:00:19;;;;;;;;;;;23.20;57.60;;;;;;5074591;28;19978;-59
2021/10/02 14:02:46;;;;;;;;;;;23.20;57.00;;;;;;5057966;28;19928;-58
2021/10/02 14:05:14;;;;;;;;;;;23.20;57.00;;;;;;5056727;28;20375;-58
2021/10/02 14:07:41;;;;;;;;;;;23.20;57.00;;;;;;5073620;28;19925;-58
2021/10/02 14:10:08;;;;;;;;;;;23.20;57.00;;;;;;5075234;28;19965;-59
2021/10/02 14:12:36;;;;;;;;;;;23.20;56.90;;;;;;5074895;28;19933;-58
2021/10/02 14:15:04;;;;;;;;;;;23.20;56.90;;;;;;5076397;28;19979;-58
2021/10/02 14:17:31;;;;;;;;;;;23.20;57.00;;;;;;5072500;28;20467;-58
2021/10/02 14:19:58;;;;;;;;;;;23.20;57.00;;;;;;5073639;28;19982;-58
2021/10/02 14:22:25;;;;;;;;;;;23.20;57.00;;;;;;5080505;28;19985;-58
2021/10/02 14:24:52;;;;;;;;;;;23.20;57.00;;;;;;5085855;28;19924;-58
2021/10/02 14:27:19;;;;;;;;;;;23.20;57.00;;;;;;5073607;28;19924;-55
2021/10/02 14:29:46;;;;;;;;;;;23.20;57.10;;;;;;5089810;28;19925;-59
2021/10/02 14:32:13;;;;;;;;;;;23.20;57.10;;;;;;5106912;28;19928;-58
2021/10/02 14:34:41;;;;;;;;;;;23.20;57.00;;;;;;5072461;28;19924;-58
2021/10/02 14:37:08;;;;;;;;;;;23.20;57.00;;;;;;5075191;28;19929;-57
2021/10/02 14:39:35;;;;;;;;;;;23.20;57.00;;;;;;5073248;28;19924;-59
2021/10/02 14:42:02;;;;;;;;;;;23.20;57.00;;;;;;5105386;28;19999;-58
2021/10/02 14:44:29;;;;;;;;;;;23.20;57.00;;;;;;5072350;28;19950;-58
2021/10/02 14:46:56;;;;;;;;;;;23.20;57.00;;;;;;5066113;28;19955;-57
2021/10/02 14:49:23;;;;;;;;;;;23.20;57.00;;;;;;5060115;28;19943;-59
2021/10/02 14:51:51;;;;;;;;;;;23.20;57.00;;;;;;5061926;28;19932;-56
2021/10/02 14:54:19;;;;;;;;;;;23.20;57.10;;;;;;5074166;28;20018;-58
2021/10/02 14:56:48;;;;;;;;;;;23.20;57.00;;;;;;5072754;28;19931;-58
2021/10/02 14:59:18;;;;;;;;;;;23.20;57.00;;;;;;5074663;28;19929;-59
2021/10/02 15:01:46;;;;;;;;;;;23.20;57.10;;;;;;5054204;28;19975;-58
2021/10/02 15:04:14;;;;;;;;;;;23.20;57.10;;;;;;5071830;28;19935;-58
2021/10/02 15:06:41;;;;;;;;;;;23.20;57.10;;;;;;5074433;28;19924;-58
2021/10/02 15:09:10;;;;;;;;;;;23.20;57.00;;;;;;5071909;28;19924;-59
2021/10/02 15:11:37;;;;;;;;;;;23.20;57.00;;;;;;5073896;28;19978;-57
2021/10/02 15:14:04;;;;;;;;;;;23.20;57.00;;;;;;5081072;28;20284;-58
2021/10/02 15:16:32;;;;;;;;;;;23.20;57.10;;;;;;5088154;28;19924;-58
2021/10/02 15:18:59;;;;;;;;;;;23.20;57.00;;;;;;5073549;28;20015;-59
2021/10/02 15:21:33;;;;;;;;;;;23.20;57.10;;;;;;5072551;28;19970;-58
2021/10/02 15:24:02;;;;;;;;;;;23.20;57.10;;;;;;5073694;28;20000;-58
2021/10/02 15:26:30;;;;;;;;;;;23.20;57.10;;;;;;5072426;28;19928;-58